TimeCDT,TemperatureF,Dew PointF,Humidity,Sea Level PressureIn,VisibilityMPH,Wind Direction,Wind SpeedMPH,Gust SpeedMPH,PrecipitationIn,Events,Conditions,WindDirDegrees,DateUTC
12:57 AM,48.0,34.0,58,30.04,10.0,NNE,6.9,-,N/A,,Clear,30,2014-03-22 05:57:00
1:57 AM,48.9,32.0,52,30.04,10.0,North,9.2,-,N/A,,Clear,10,2014-03-22 06:57:00
2:57 AM,46.0,30.9,56,30.06,10.0,NNE,8.1,-,N/A,,Clear,20,2014-03-22 07:57:00
3:57 AM,44.1,30.9,60,30.07,10.0,North,8.1,-,N/A,,Clear,10,2014-03-22 08:57:00
4:57 AM,42.1,30.9,65,30.09,10.0,NNE,11.5,-,N/A,,Clear,20,2014-03-22 09:57:00
5:57 AM,42.1,30.0,62,30.10,10.0,NNE,10.4,-,N/A,,Clear,20,2014-03-22 10:57:00
6:57 AM,39.9,30.9,70,30.15,10.0,North,9.2,-,N/A,,Clear,10,2014-03-22 11:57:00
7:57 AM,39.0,32.0,76,30.17,10.0,NNE,11.5,-,N/A,,Clear,20,2014-03-22 12:57:00
8:57 AM,39.9,32.0,73,30.19,10.0,NNE,15.0,-,N/A,,Clear,20,2014-03-22 13:57:00
9:57 AM,43.0,32.0,65,30.22,10.0,NNE,10.4,-,N/A,,Clear,20,2014-03-22 14:57:00
10:57 AM,46.0,28.9,51,30.22,10.0,NNE,16.1,-,N/A,,Clear,30,2014-03-22 15:57:00
11:57 AM,48.9,28.0,44,30.20,10.0,North,12.7,-,N/A,,Clear,10,2014-03-22 16:57:00
12:57 PM,52.0,28.0,40,30.18,10.0,North,10.4,19.6,N/A,,Clear,10,2014-03-22 17:57:00
1:57 PM,54.0,25.0,33,30.15,10.0,North,12.7,-,N/A,,Clear,10,2014-03-22 18:57:00
2:57 PM,55.9,24.1,29,30.13,10.0,North,11.5,18.4,N/A,,Clear,360,2014-03-22 19:57:00
3:57 PM,57.0,24.1,28,30.10,10.0,NNE,15.0,20.7,N/A,,Clear,30,2014-03-22 20:57:00
4:57 PM,55.9,25.0,30,30.10,10.0,North,12.7,19.6,N/A,,Mostly Cloudy,10,2014-03-22 21:57:00
5:57 PM,53.1,25.0,34,30.11,10.0,North,13.8,-,0.00,Rain,Light Rain,10,2014-03-22 22:57:00
6:57 PM,51.1,27.0,39,30.12,10.0,NNE,12.7,-,0.00,Rain,Light Rain,30,2014-03-22 23:57:00
7:57 PM,50.0,28.9,44,30.14,10.0,NNE,10.4,-,0.00,Rain,Light Rain,20,2014-03-23 00:57:00
8:57 PM,46.9,30.9,54,30.18,10.0,NNE,12.7,-,0.00,Rain,Light Rain,30,2014-03-23 01:57:00
9:57 PM,46.0,28.9,51,30.21,10.0,North,10.4,-,N/A,Rain,Light Rain,10,2014-03-23 02:57:00
10:57 PM,43.0,28.0,56,30.24,10.0,North,10.4,17.3,N/A,Rain,Light Rain,360,2014-03-23 03:57:00
11:57 PM,42.1,26.1,53,30.25,10.0,North,9.2,-,0.00,,Overcast,10,2014-03-23 04:57:00